This is the latest recevied weather packets stored in our database for station/object KF7OVD-WX. If no packets are shown the sender has not sent any weather packets the latest 10 day(s).
| Time | Temp. | Humidity | Pressure | Rain* | Wind** | Luminosity | Snow |
|---|---|---|---|---|---|---|---|
| 1777782623 | 10.56° C | 39% | 1021 hPa | 0 mm | - | - | - |
| 1777779920 | 11.67° C | 37% | 1020.2 hPa | 0 mm | - | - | - |
| 1777776919 | 14.44° C | 34% | 1020 hPa | 0 mm | - | - | - |
| 1777775426 | 16.67° C | 28% | 1019.9 hPa | 0 mm | - | - | - |
| 1777772723 | 20.56° C | 19% | 1019.8 hPa | 0 mm | - | - | - |
| 1777772421 | 20.56° C | 19% | 1019.8 hPa | 0 mm | - | - | - |
| 1777770321 | 22.22° C | 17% | 1019.9 hPa | 0 mm | - | - | - |
| 1777768853 | 23.33° C | 16% | 1019.9 hPa | 0 mm | - | - | - |
| 1777768228 | 23.33° C | 17% | 1019.9 hPa | 0 mm | - | - | - |
| 1777764357 | 24.44° C | 15% | 1020.2 hPa | 0 mm | - | - | - |
| 1777762238 | 25° C | 15% | 1020.6 hPa | 0 mm | - | - | - |
| 1777761619 | 26.11° C | 15% | 1020.8 hPa | 0 mm | - | - | - |
| 1777760731 | 25° C | 16% | 1021 hPa | 0 mm | - | - | - |
| 1777759522 | 25° C | 16% | 1021.3 hPa | 0 mm | - | - | - |
| 1777757728 | 25° C | 17% | 1021.9 hPa | 0 mm | - | - | - |
| 1777756821 | 25° C | 16% | 1022.1 hPa | 0 mm | - | - | - |
| 1777756217 | 25.56° C | 17% | 1022.2 hPa | 0 mm | - | - | - |
| 1777755631 | 25.56° C | 17% | 1022.4 hPa | 0 mm | - | - | - |
| 1777752917 | 25° C | 18% | 1022.9 hPa | 0 mm | - | - | - |
| 1777752615 | 25.56° C | 17% | 1023.2 hPa | 0 mm | - | - | - |
| 1777747818 | 24.44° C | 20% | 1024.1 hPa | 0 mm | - | - | - |
| 1777747230 | 23.89° C | 20% | 1024.3 hPa | 0 mm | - | - | - |
| 1777746323 | 22.22° C | 21% | 1024.5 hPa | 0 mm | - | - | - |
| 1777745718 | 22.78° C | 23% | 1024.6 hPa | 0 mm | - | - | - |
| 1777743931 | 21.67° C | 24% | 1025.1 hPa | 0 mm | - | - | - |
* Rain latest hour (hover to see other rain measurements)
** Current wind speed in m/s (hover to see current wind gust speed)